Time;durP1;ratioP1;P1;durP2;ratioP2;P2;SDS_P1;SDS_P2;PMS_P1;PMS_P2;Temp;Humidity;BMP_temperature;BMP_pressure;BME280_temperature;BME280_humidity;BME280_pressure;Samples;Min_cycle;Max_cycle;Signal;HPM_P1;HPM_P2
2021/11/18 00:01:18;;;;;;;2.88;1.73;;;;;;;;;;7396518;19;20359;-54
2021/11/18 00:03:46;;;;;;;4.90;1.90;;;;;;;;;;7396013;19;20016;-56
2021/11/18 00:06:15;;;;;;;3.53;1.73;;;;;;;;;;7395818;19;20011;-59
2021/11/18 00:08:44;;;;;;;3.70;1.98;;;;;;;;;;7396385;19;20364;-57
2021/11/18 00:11:13;;;;;;;2.75;1.65;;;;;;;;;;7396402;19;20013;-58
2021/11/18 00:13:47;;;;;;;3.85;2.05;;;;;;;;;;7395433;19;20030;-52
2021/11/18 00:16:15;;;;;;;5.50;2.25;;;;;;;;;;7396140;19;20091;-57
2021/11/18 00:18:43;;;;;;;3.20;2.10;;;;;;;;;;7395758;19;20019;-59
2021/11/18 00:21:15;;;;;;;3.60;1.92;;;;;;;;;;7395542;19;20006;-58
2021/11/18 00:23:47;;;;;;;4.28;1.98;;;;;;;;;;7395865;19;20373;-57
2021/11/18 00:26:15;;;;;;;4.60;2.33;;;;;;;;;;7395166;19;20507;-58
2021/11/18 00:28:43;;;;;;;5.00;2.47;;;;;;;;;;7395393;19;20010;-56
2021/11/18 00:31:14;;;;;;;3.35;1.92;;;;;;;;;;7394181;19;20014;-58
2021/11/18 00:33:43;;;;;;;3.17;1.90;;;;;;;;;;7393819;19;20015;-59
2021/11/18 00:36:11;;;;;;;4.13;2.42;;;;;;;;;;7392663;19;20014;-56
2021/11/18 00:38:38;;;;;;;6.43;2.05;;;;;;;;;;7394635;19;20010;-57
2021/11/18 00:41:06;;;;;;;5.85;2.45;;;;;;;;;;7394969;19;20038;-58
2021/11/18 00:43:34;;;;;;;3.63;2.13;;;;;;;;;;7394537;19;20018;-58
2021/11/18 00:46:01;;;;;;;4.05;2.47;;;;;;;;;;7392905;19;20014;-58
2021/11/18 00:48:29;;;;;;;4.35;2.25;;;;;;;;;;7394404;19;20014;-59
2021/11/18 00:51:04;;;;;;;4.68;2.40;;;;;;;;;;7392984;19;20092;-59
2021/11/18 00:53:36;;;;;;;4.28;2.42;;;;;;;;;;7397763;19;20018;-55
2021/11/18 00:56:05;;;;;;;4.47;2.30;;;;;;;;;;7390116;19;20022;-58
2021/11/18 00:58:32;;;;;;;5.53;2.05;;;;;;;;;;7396949;19;20021;-59
2021/11/18 01:01:02;;;;;;;4.75;2.60;;;;;;;;;;7392454;19;20010;-59
2021/11/18 01:03:31;;;;;;;4.90;2.30;;;;;;;;;;7393799;19;20039;-59
2021/11/18 01:05:59;;;;;;;4.07;2.30;;;;;;;;;;7394217;19;20026;-57
2021/11/18 01:08:27;;;;;;;4.30;2.20;;;;;;;;;;7393886;19;20011;-59
2021/11/18 01:11:07;;;;;;;3.80;2.17;;;;;;;;;;7392268;19;20087;-55
2021/11/18 01:13:35;;;;;;;3.58;1.92;;;;;;;;;;7391532;19;20013;-59
2021/11/18 01:16:07;;;;;;;3.55;2.38;;;;;;;;;;7393981;19;20043;-59
2021/11/18 01:18:35;;;;;;;3.50;2.00;;;;;;;;;;7393730;19;20007;-56
2021/11/18 01:21:05;;;;;;;4.40;2.30;;;;;;;;;;7393273;19;20455;-58
2021/11/18 01:23:36;;;;;;;3.67;2.00;;;;;;;;;;7391985;19;20056;-58
2021/11/18 01:26:06;;;;;;;3.60;2.28;;;;;;;;;;7393355;19;20344;-58
2021/11/18 01:28:34;;;;;;;4.60;2.20;;;;;;;;;;7393382;19;20069;-58
2021/11/18 01:31:04;;;;;;;4.32;2.42;;;;;;;;;;7391147;19;20018;-59
2021/11/18 01:33:34;;;;;;;3.85;2.10;;;;;;;;;;7392940;19;20449;-59
2021/11/18 01:36:04;;;;;;;3.50;2.08;;;;;;;;;;7391032;19;20025;-59
2021/11/18 01:38:35;;;;;;;4.43;2.42;;;;;;;;;;7391278;19;20022;-59
2021/11/18 01:41:23;;;;;;;4.80;2.63;;;;;;;;;;7391277;19;20017;-58
2021/11/18 01:43:58;;;;;;;4.00;2.50;;;;;;;;;;7390435;19;20019;-58
2021/11/18 01:46:32;;;;;;;3.88;2.58;;;;;;;;;;7387399;19;20388;-58
2021/11/18 01:49:04;;;;;;;6.03;2.60;;;;;;;;;;7390833;19;20024;-58
2021/11/18 01:51:37;;;;;;;4.03;2.58;;;;;;;;;;7392797;19;20036;-59
2021/11/18 01:54:05;;;;;;;4.75;2.50;;;;;;;;;;7389919;19;20059;-59
2021/11/18 01:56:34;;;;;;;3.95;2.53;;;;;;;;;;7390287;19;20010;-57
2021/11/18 01:59:13;;;;;;;5.03;2.92;;;;;;;;;;7392050;19;20356;-59
2021/11/18 02:01:48;;;;;;;4.68;2.47;;;;;;;;;;7392372;19;20014;-58
2021/11/18 02:04:51;;;;;;;5.18;2.75;;;;;;;;;;7391687;19;20543;-57
2021/11/18 02:07:20;;;;;;;4.87;3.07;;;;;;;;;;7389744;19;20018;-58
2021/11/18 02:09:50;;;;;;;4.35;3.17;;;;;;;;;;7393715;19;20272;-57
2021/11/18 02:12:27;;;;;;;5.20;3.17;;;;;;;;;;7390431;19;20018;-59
2021/11/18 02:14:56;;;;;;;4.80;3.35;;;;;;;;;;7389069;19;20104;-59
2021/11/18 02:17:28;;;;;;;5.95;3.58;;;;;;;;;;7391316;19;20086;-58
2021/11/18 02:20:00;;;;;;;5.00;3.08;;;;;;;;;;7389606;19;20495;-57
2021/11/18 02:22:29;;;;;;;4.43;3.00;;;;;;;;;;7390153;19;20098;-58
2021/11/18 02:25:09;;;;;;;5.85;3.03;;;;;;;;;;7389655;19;20018;-59
2021/11/18 02:27:36;;;;;;;5.38;3.20;;;;;;;;;;7389155;19;20370;-58
2021/11/18 02:30:07;;;;;;;3.90;2.50;;;;;;;;;;7388228;19;20070;-59
2021/11/18 02:32:37;;;;;;;4.18;2.70;;;;;;;;;;7389381;19;20014;-58
2021/11/18 02:35:11;;;;;;;5.07;2.47;;;;;;;;;;7388009;19;20010;-59
2021/11/18 02:37:39;;;;;;;4.65;2.58;;;;;;;;;;7388774;19;20021;-59
2021/11/18 02:40:09;;;;;;;4.20;2.80;;;;;;;;;;7390419;19;20018;-59
2021/11/18 02:42:38;;;;;;;3.65;2.58;;;;;;;;;;7388133;19;20014;-59
2021/11/18 02:45:12;;;;;;;6.10;3.00;;;;;;;;;;7388987;19;20007;-54
2021/11/18 02:47:40;;;;;;;18.60;8.82;;;;;;;;;;7389034;19;20023;-57
2021/11/18 02:50:12;;;;;;;181.43;93.88;;;;;;;;;;7388841;19;20014;-58
2021/11/18 02:52:46;;;;;;;8.32;5.55;;;;;;;;;;7392938;19;20070;-59
2021/11/18 02:55:17;;;;;;;5.13;3.33;;;;;;;;;;7387568;19;20030;-57
2021/11/18 02:57:45;;;;;;;5.10;2.72;;;;;;;;;;7389904;19;20014;-58
2021/11/18 03:00:19;;;;;;;4.03;2.55;;;;;;;;;;7388441;19;20027;-58
2021/11/18 03:02:48;;;;;;;5.45;2.83;;;;;;;;;;7389252;19;20482;-58
2021/11/18 03:05:18;;;;;;;4.28;2.83;;;;;;;;;;7390315;19;20026;-57
2021/11/18 03:07:50;;;;;;;4.35;3.13;;;;;;;;;;7388726;19;20006;-58
2021/11/18 03:10:21;;;;;;;5.47;3.33;;;;;;;;;;7388942;19;20007;-56
2021/11/18 03:12:49;;;;;;;4.43;2.70;;;;;;;;;;7388638;19;20025;-57
2021/11/18 03:15:19;;;;;;;6.13;2.80;;;;;;;;;;7387114;19;20082;-54
2021/11/18 03:17:47;;;;;;;6.60;3.05;;;;;;;;;;7388265;19;20217;-58
2021/11/18 03:20:25;;;;;;;4.57;3.10;;;;;;;;;;7388294;19;20011;-58
2021/11/18 03:22:53;;;;;;;5.72;3.63;;;;;;;;;;7387536;19;20014;-56
2021/11/18 03:25:26;;;;;;;158.88;58.65;;;;;;;;;;7389940;19;20057;-58
2021/11/18 03:28:00;;;;;;;14.05;6.90;;;;;;;;;;7389892;19;20018;-58
2021/11/18 03:30:35;;;;;;;5.60;3.55;;;;;;;;;;7389551;19;20006;-57
2021/11/18 03:33:21;;;;;;;6.20;3.47;;;;;;;;;;7387314;19;20018;-55
2021/11/18 03:35:49;;;;;;;5.13;3.47;;;;;;;;;;7385714;19;20019;-58
2021/11/18 03:38:17;;;;;;;4.80;3.53;;;;;;;;;;7387970;19;20032;-59
2021/11/18 03:40:59;;;;;;;6.97;3.35;;;;;;;;;;7387662;19;20014;-58
2021/11/18 03:43:26;;;;;;;6.13;3.70;;;;;;;;;;7391888;19;20373;-57
2021/11/18 03:45:54;;;;;;;5.18;3.50;;;;;;;;;;7386951;19;20475;-57
2021/11/18 03:48:24;;;;;;;5.43;3.20;;;;;;;;;;7387124;19;20010;-58
2021/11/18 03:50:52;;;;;;;6.60;4.28;;;;;;;;;;7387937;19;20034;-54
2021/11/18 03:53:19;;;;;;;5.82;3.45;;;;;;;;;;7390563;19;20521;-58
2021/11/18 03:55:47;;;;;;;4.93;3.70;;;;;;;;;;7384671;19;20033;-54
2021/11/18 03:58:15;;;;;;;6.00;4.00;;;;;;;;;;7387055;19;20029;-55
2021/11/18 04:00:44;;;;;;;5.60;4.00;;;;;;;;;;7387332;19;20634;-60
2021/11/18 04:03:13;;;;;;;37.85;17.52;;;;;;;;;;7386602;19;20347;-59
2021/11/18 04:05:42;;;;;;;8.40;4.75;;;;;;;;;;7384889;19;20018;-59
2021/11/18 04:08:12;;;;;;;5.57;3.72;;;;;;;;;;7388090;19;20127;-57
2021/11/18 04:10:40;;;;;;;6.63;4.70;;;;;;;;;;7392111;19;20487;-57
2021/11/18 04:13:09;;;;;;;5.88;3.80;;;;;;;;;;7395652;19;20027;-58
2021/11/18 04:15:37;;;;;;;9.07;5.35;;;;;;;;;;7392317;19;20010;-59
2021/11/18 04:18:07;;;;;;;6.53;4.53;;;;;;;;;;7393858;19;20010;-57
2021/11/18 04:20:38;;;;;;;7.25;4.80;;;;;;;;;;7393421;19;20356;-57
2021/11/18 04:23:07;;;;;;;6.95;4.57;;;;;;;;;;7394344;19;20014;-57
2021/11/18 04:25:38;;;;;;;7.75;4.97;;;;;;;;;;7393187;19;20021;-59
2021/11/18 04:28:07;;;;;;;8.25;5.13;;;;;;;;;;7393552;19;20014;-58
2021/11/18 04:30:41;;;;;;;7.32;5.30;;;;;;;;;;7393179;19;20471;-59
2021/11/18 04:33:31;;;;;;;62.25;25.58;;;;;;;;;;7394569;19;20017;-57
2021/11/18 04:36:00;;;;;;;10.00;6.50;;;;;;;;;;7391489;19;20128;-57
2021/11/18 04:38:28;;;;;;;10.50;5.70;;;;;;;;;;7393592;19;20018;-57
2021/11/18 04:40:56;;;;;;;7.15;5.18;;;;;;;;;;7393670;19;20025;-56
2021/11/18 04:43:24;;;;;;;9.70;6.10;;;;;;;;;;7395292;19;20006;-52
2021/11/18 04:45:57;;;;;;;9.65;5.88;;;;;;;;;;7393317;19;20021;-59
2021/11/18 04:48:25;;;;;;;11.00;6.40;;;;;;;;;;7393049;19;20018;-58
2021/11/18 04:50:54;;;;;;;9.65;5.97;;;;;;;;;;7392617;19;20082;-59
2021/11/18 04:53:27;;;;;;;10.25;6.47;;;;;;;;;;7398739;19;20021;-57
2021/11/18 04:56:00;;;;;;;8.98;5.88;;;;;;;;;;7389417;19;20573;-57
2021/11/18 04:58:37;;;;;;;9.13;6.28;;;;;;;;;;7397522;19;20010;-56
2021/11/18 05:01:05;;;;;;;9.45;6.40;;;;;;;;;;7392159;19;20070;-59
2021/11/18 05:03:34;;;;;;;6.85;5.00;;;;;;;;;;7392128;19;20022;-57
2021/11/18 05:06:03;;;;;;;9.52;5.50;;;;;;;;;;7391905;19;20011;-59
2021/11/18 05:08:31;;;;;;;11.32;5.72;;;;;;;;;;7392140;19;20096;-56
2021/11/18 05:10:59;;;;;;;9.68;5.78;;;;;;;;;;7392472;19;20043;-55
2021/11/18 05:13:28;;;;;;;9.52;6.07;;;;;;;;;;7394273;19;20014;-58
2021/11/18 05:16:04;;;;;;;168.63;66.35;;;;;;;;;;7391788;19;20046;-49
2021/11/18 05:18:32;;;;;;;29.25;13.48;;;;;;;;;;7393674;19;20027;-58
2021/11/18 05:21:01;;;;;;;15.23;6.72;;;;;;;;;;7391663;19;20017;-56
2021/11/18 05:23:35;;;;;;;9.65;5.22;;;;;;;;;;7391997;19;20022;-58
2021/11/18 05:26:04;;;;;;;10.65;5.22;;;;;;;;;;7390955;19;20018;-57
2021/11/18 05:28:32;;;;;;;10.82;6.40;;;;;;;;;;7393411;19;20015;-58
2021/11/18 05:31:00;;;;;;;10.52;5.70;;;;;;;;;;7391116;19;20014;-56
2021/11/18 05:33:39;;;;;;;7.68;5.20;;;;;;;;;;7392718;19;20622;-58
2021/11/18 05:36:07;;;;;;;9.77;5.75;;;;;;;;;;7388724;19;20331;-54
2021/11/18 05:38:35;;;;;;;6.72;4.40;;;;;;;;;;7390621;19;20431;-56
2021/11/18 05:41:03;;;;;;;9.18;5.43;;;;;;;;;;7393093;19;20088;-57
2021/11/18 05:43:35;;;;;;;7.63;4.88;;;;;;;;;;7392243;19;20007;-59
2021/11/18 05:46:03;;;;;;;9.43;5.22;;;;;;;;;;7390097;19;20504;-58
2021/11/18 05:48:31;;;;;;;8.73;4.75;;;;;;;;;;7391104;19;20013;-58
2021/11/18 05:51:00;;;;;;;7.95;4.43;;;;;;;;;;7390900;19;20018;-58
2021/11/18 05:53:33;;;;;;;7.78;4.78;;;;;;;;;;7396858;19;20035;-56
2021/11/18 05:56:04;;;;;;;7.68;4.53;;;;;;;;;;7388612;19;20018;-58
2021/11/18 05:58:34;;;;;;;7.22;4.05;;;;;;;;;;7390576;19;20368;-56
2021/11/18 06:01:03;;;;;;;7.18;3.70;;;;;;;;;;7392995;19;20021;-56
2021/11/18 06:03:34;;;;;;;6.97;3.85;;;;;;;;;;7390849;19;20014;-58
2021/11/18 06:06:08;;;;;;;6.20;3.78;;;;;;;;;;7390070;19;20034;-58
2021/11/18 06:08:37;;;;;;;5.70;3.75;;;;;;;;;;7390633;19;20014;-56
2021/11/18 06:11:11;;;;;;;6.25;3.83;;;;;;;;;;7392052;19;20037;-57
2021/11/18 06:13:40;;;;;;;7.63;4.30;;;;;;;;;;7390108;19;20014;-57
2021/11/18 06:16:11;;;;;;;4.95;3.60;;;;;;;;;;7388606;19;20019;-58
2021/11/18 06:18:41;;;;;;;7.68;3.90;;;;;;;;;;7390017;19;20040;-59
2021/11/18 06:21:12;;;;;;;7.25;3.97;;;;;;;;;;7391358;19;20015;-57
2021/11/18 06:23:40;;;;;;;6.45;3.60;;;;;;;;;;7389861;19;20016;-56
2021/11/18 06:26:10;;;;;;;6.22;3.10;;;;;;;;;;7389397;19;20085;-57
2021/11/18 06:28:37;;;;;;;6.38;3.85;;;;;;;;;;7391176;19;20011;-58
2021/11/18 06:31:07;;;;;;;6.00;3.88;;;;;;;;;;7390903;19;20027;-56
2021/11/18 06:33:38;;;;;;;5.82;3.33;;;;;;;;;;7387935;19;20032;-58
2021/11/18 06:36:06;;;;;;;6.28;3.25;;;;;;;;;;7388359;19;20020;-57
2021/11/18 06:38:37;;;;;;;6.18;2.95;;;;;;;;;;7388984;19;20014;-58
2021/11/18 06:41:08;;;;;;;5.28;2.78;;;;;;;;;;7389213;19;20015;-57
2021/11/18 06:43:36;;;;;;;5.70;3.08;;;;;;;;;;7389360;19;20022;-57
2021/11/18 06:46:04;;;;;;;4.65;2.70;;;;;;;;;;7387629;19;20038;-58
2021/11/18 06:48:33;;;;;;;4.60;2.70;;;;;;;;;;7389182;19;20060;-59
2021/11/18 06:51:21;;;;;;;3.78;2.28;;;;;;;;;;7389205;19;20022;-58
2021/11/18 06:53:53;;;;;;;4.07;2.80;;;;;;;;;;7392505;19;20010;-59
2021/11/18 06:56:26;;;;;;;4.78;2.75;;;;;;;;;;7387714;19;20397;-58
2021/11/18 06:58:58;;;;;;;7.47;3.95;;;;;;;;;;7390640;19;20011;-57
2021/11/18 07:01:31;;;;;;;7.75;3.95;;;;;;;;;;7390645;19;20078;-57
2021/11/18 07:03:59;;;;;;;4.70;3.20;;;;;;;;;;7389165;19;20467;-59
2021/11/18 07:06:27;;;;;;;4.78;3.03;;;;;;;;;;7387897;19;20019;-58
2021/11/18 07:09:03;;;;;;;4.43;2.80;;;;;;;;;;7390145;19;20028;-56
2021/11/18 07:11:33;;;;;;;5.32;2.60;;;;;;;;;;7388497;19;20022;-59
2021/11/18 07:14:01;;;;;;;4.00;2.10;;;;;;;;;;7389146;19;20011;-57
2021/11/18 07:16:29;;;;;;;4.13;2.47;;;;;;;;;;7386562;19;20554;-57
2021/11/18 07:18:56;;;;;;;6.57;2.97;;;;;;;;;;7387883;19;20531;-59
2021/11/18 07:21:25;;;;;;;6.45;3.83;;;;;;;;;;7388195;19;20015;-58
2021/11/18 07:23:55;;;;;;;6.10;3.42;;;;;;;;;;7389034;19;20038;-58
2021/11/18 07:26:23;;;;;;;5.95;3.63;;;;;;;;;;7388010;19;20038;-58
2021/11/18 07:28:52;;;;;;;5.07;3.28;;;;;;;;;;7390969;19;20018;-57
2021/11/18 07:31:20;;;;;;;4.68;2.95;;;;;;;;;;7388607;19;20030;-57
2021/11/18 07:33:50;;;;;;;3.15;1.88;;;;;;;;;;7388031;19;20026;-55
2021/11/18 07:36:17;;;;;;;4.05;2.15;;;;;;;;;;7389659;19;20024;-58
2021/11/18 07:38:46;;;;;;;4.03;1.98;;;;;;;;;;7387223;19;20021;-58
2021/11/18 07:41:14;;;;;;;3.72;1.90;;;;;;;;;;7389519;19;20022;-57
2021/11/18 07:43:51;;;;;;;3.13;1.98;;;;;;;;;;7389848;19;20046;-59
2021/11/18 07:47:14;;;;;;;144.75;57.13;;;;;;;;;;7396244;19;20017;-60
2021/11/18 07:49:46;;;;;;;38.22;15.30;;;;;;;;;;7395087;19;20060;-59
2021/11/18 07:52:14;;;;;;;5.25;3.30;;;;;;;;;;7397473;19;20010;-58
2021/11/18 07:54:42;;;;;;;3.60;2.08;;;;;;;;;;7395319;19;20017;-58
2021/11/18 07:57:09;;;;;;;3.45;2.10;;;;;;;;;;7392521;19;20018;-59
2021/11/18 07:59:37;;;;;;;3.22;1.92;;;;;;;;;;7395259;19;20026;-58
2021/11/18 08:02:04;;;;;;;3.47;1.90;;;;;;;;;;7394428;19;20022;-58
2021/11/18 08:04:32;;;;;;;3.08;1.80;;;;;;;;;;7394521;19;20078;-59
2021/11/18 08:07:03;;;;;;;3.08;1.83;;;;;;;;;;7393801;19;20018;-58
2021/11/18 08:09:31;;;;;;;3.00;1.60;;;;;;;;;;7393792;19;20489;-58
2021/11/18 08:12:03;;;;;;;4.57;1.83;;;;;;;;;;7395540;19;20074;-59
2021/11/18 08:14:32;;;;;;;4.40;1.80;;;;;;;;;;7396492;19;20010;-58
2021/11/18 08:17:00;;;;;;;3.90;2.00;;;;;;;;;;7393137;19;20019;-55
2021/11/18 08:19:28;;;;;;;2.92;1.60;;;;;;;;;;7394160;19;20018;-58
2021/11/18 08:22:07;;;;;;;4.72;2.10;;;;;;;;;;7394215;19;20018;-55
2021/11/18 08:24:35;;;;;;;3.10;1.90;;;;;;;;;;7393880;19;20019;-58
2021/11/18 08:27:02;;;;;;;294.88;106.28;;;;;;;;;;7393254;19;20022;-58
2021/11/18 08:29:34;;;;;;;15.15;8.35;;;;;;;;;;7394356;19;20011;-55
2021/11/18 08:32:04;;;;;;;6.53;3.22;;;;;;;;;;7393508;19;20052;-58
2021/11/18 08:34:54;;;;;;;5.40;3.25;;;;;;;;;;7394444;19;20022;-57
2021/11/18 08:37:22;;;;;;;4.47;2.85;;;;;;;;;;7390444;19;20074;-57
2021/11/18 08:39:50;;;;;;;5.75;2.85;;;;;;;;;;7390961;19;20483;-58
2021/11/18 08:42:20;;;;;;;4.55;3.00;;;;;;;;;;7393056;19;20106;-57
2021/11/18 08:44:55;;;;;;;4.90;2.78;;;;;;;;;;7391591;19;20015;-59
2021/11/18 08:47:27;;;;;;;9.68;3.45;;;;;;;;;;7393859;19;20493;-57
2021/11/18 08:49:59;;;;;;;4.55;2.85;;;;;;;;;;7392206;19;20038;-53
2021/11/18 08:52:32;;;;;;;35.05;16.83;;;;;;;;;;7394603;19;20368;-57
2021/11/18 08:55:03;;;;;;;9.68;4.63;;;;;;;;;;7391630;19;20074;-57
2021/11/18 08:57:31;;;;;;;5.70;3.72;;;;;;;;;;7390927;19;20042;-56
2021/11/18 09:00:22;;;;;;;4.22;2.53;;;;;;;;;;7392730;19;20018;-57
2021/11/18 09:02:59;;;;;;;4.20;2.45;;;;;;;;;;7393093;19;20020;-58
2021/11/18 09:05:30;;;;;;;4.38;2.25;;;;;;;;;;7392528;19;20099;-59
2021/11/18 09:08:00;;;;;;;4.93;2.70;;;;;;;;;;7391745;19;20018;-58
2021/11/18 09:10:32;;;;;;;4.93;2.47;;;;;;;;;;7393872;19;20018;-58
2021/11/18 09:13:02;;;;;;;4.35;2.80;;;;;;;;;;7393871;19;20015;-59
2021/11/18 09:15:30;;;;;;;4.68;2.47;;;;;;;;;;7391312;19;20479;-59
2021/11/18 09:17:58;;;;;;;4.00;2.10;;;;;;;;;;7392323;19;20010;-58
2021/11/18 09:20:40;;;;;;;3.60;2.20;;;;;;;;;;7392012;19;20019;-59
2021/11/18 09:23:08;;;;;;;3.22;1.90;;;;;;;;;;7392357;19;20033;-59
2021/11/18 09:25:43;;;;;;;5.70;2.10;;;;;;;;;;7392167;19;20034;-59
2021/11/18 09:28:14;;;;;;;4.00;1.80;;;;;;;;;;7392022;19;20019;-58
2021/11/18 09:31:07;;;;;;;3.42;2.10;;;;;;;;;;7390915;19;20038;-58
2021/11/18 09:33:35;;;;;;;65.78;33.05;;;;;;;;;;7391502;19;20081;-58
2021/11/18 09:36:06;;;;;;;8.48;4.63;;;;;;;;;;7392074;19;20011;-59
2021/11/18 09:38:40;;;;;;;4.97;2.72;;;;;;;;;;7392375;19;20010;-57
2021/11/18 09:41:18;;;;;;;3.90;2.13;;;;;;;;;;7390823;19;20472;-57
2021/11/18 09:44:11;;;;;;;4.32;2.60;;;;;;;;;;7387774;19;20018;-59
2021/11/18 09:47:05;;;;;;;3.75;2.35;;;;;;;;;;7391245;19;20499;-59
2021/11/18 09:50:10;;;;;;;5.10;2.25;;;;;;;;;;7390558;19;20011;-58
2021/11/18 09:53:17;;;;;;;3.38;2.03;;;;;;;;;;7393665;19;20040;-59
2021/11/18 09:56:18;;;;;;;3.95;2.28;;;;;;;;;;7388231;19;20136;-59
2021/11/18 09:59:24;;;;;;;3.83;2.30;;;;;;;;;;7391906;19;20007;-59
2021/11/18 10:02:17;;;;;;;4.53;2.28;;;;;;;;;;7390261;19;20021;-58
2021/11/18 10:04:54;;;;;;;3.92;2.58;;;;;;;;;;7390341;19;20024;-57
2021/11/18 10:07:21;;;;;;;24.63;12.88;;;;;;;;;;7387833;19;20083;-61
2021/11/18 10:10:07;;;;;;;5.28;3.30;;;;;;;;;;7390197;19;20007;-59
2021/11/18 10:13:05;;;;;;;4.45;2.83;;;;;;;;;;7390039;19;20026;-57
2021/11/18 10:15:44;;;;;;;5.45;3.30;;;;;;;;;;7389995;19;20090;-52
2021/11/18 10:18:32;;;;;;;5.57;3.42;;;;;;;;;;7390189;19;20021;-58
2021/11/18 10:21:10;;;;;;;5.60;3.15;;;;;;;;;;7391418;19;20340;-56
2021/11/18 10:23:38;;;;;;;6.40;3.65;;;;;;;;;;7391717;19;20018;-60
2021/11/18 10:26:11;;;;;;;9.60;4.07;;;;;;;;;;7391755;19;20085;-59
2021/11/18 10:29:06;;;;;;;6.63;4.43;;;;;;;;;;7388822;19;20009;-55
2021/11/18 10:31:37;;;;;;;6.65;4.00;;;;;;;;;;7390856;19;20309;-55
2021/11/18 10:34:13;;;;;;;6.90;3.70;;;;;;;;;;7390881;19;20463;-53
2021/11/18 10:37:01;;;;;;;7.78;4.47;;;;;;;;;;7391025;19;20015;-53
2021/11/18 10:39:48;;;;;;;6.88;4.25;;;;;;;;;;7391149;19;20016;-58
2021/11/18 10:42:18;;;;;;;6.18;3.40;;;;;;;;;;7392069;19;20021;-58
2021/11/18 10:44:57;;;;;;;72.00;29.48;;;;;;;;;;7390896;19;20034;-61
2021/11/18 10:47:37;;;;;;;19.33;9.95;;;;;;;;;;7391031;19;20025;-59
2021/11/18 10:50:28;;;;;;;8.85;4.93;;;;;;;;;;7390065;19;20086;-56
2021/11/18 10:53:17;;;;;;;5.68;3.60;;;;;;;;;;7392422;19;20486;-58
2021/11/18 10:56:09;;;;;;;5.88;2.83;;;;;;;;;;7388357;19;20483;-53
2021/11/18 10:58:39;;;;;;;5.55;2.97;;;;;;;;;;7389361;19;20015;-59
2021/11/18 11:01:30;;;;;;;5.28;3.17;;;;;;;;;;7391364;19;20018;-57
2021/11/18 11:04:01;;;;;;;5.57;3.17;;;;;;;;;;7390076;19;20010;-59
2021/11/18 11:06:39;;;;;;;5.20;2.92;;;;;;;;;;7390070;19;20006;-59
2021/11/18 11:09:14;;;;;;;4.20;2.70;;;;;;;;;;7390244;19;20026;-57
2021/11/18 11:11:45;;;;;;;67.50;30.55;;;;;;;;;;7390353;19;20022;-57
2021/11/18 11:14:31;;;;;;;32.35;17.30;;;;;;;;;;7391157;19;20082;-56
2021/11/18 11:17:36;;;;;;;5.10;3.25;;;;;;;;;;7388657;19;20021;-59
2021/11/18 11:20:10;;;;;;;4.57;2.60;;;;;;;;;;7396385;19;20011;-56
2021/11/18 11:22:44;;;;;;;4.13;2.17;;;;;;;;;;7397345;19;20022;-56
2021/11/18 11:25:28;;;;;;;4.25;2.17;;;;;;;;;;7397670;19;20040;-56
2021/11/18 11:28:04;;;;;;;4.30;2.58;;;;;;;;;;7397871;19;20086;-54
2021/11/18 11:30:54;;;;;;;4.45;2.50;;;;;;;;;;7396565;19;20011;-55
2021/11/18 11:33:41;;;;;;;5.57;2.15;;;;;;;;;;7397423;19;20086;-59
2021/11/18 11:36:19;;;;;;;3.38;2.05;;;;;;;;;;7395431;19;20412;-56
2021/11/18 11:38:51;;;;;;;3.05;1.65;;;;;;;;;;7397134;19;20017;-58
2021/11/18 11:41:40;;;;;;;3.47;1.90;;;;;;;;;;7396398;19;20010;-60
2021/11/18 11:44:32;;;;;;;3.95;2.10;;;;;;;;;;7397081;19;20023;-52
2021/11/18 11:47:13;;;;;;;3.03;1.75;;;;;;;;;;7396463;19;20019;-60
2021/11/18 11:49:49;;;;;;;36.75;14.45;;;;;;;;;;7396339;19;20025;-59
2021/11/18 11:52:37;;;;;;;16.35;8.52;;;;;;;;;;7395701;19;20014;-55
2021/11/18 11:55:28;;;;;;;4.30;2.00;;;;;;;;;;7394715;19;20522;-58
2021/11/18 11:58:23;;;;;;;2.97;1.63;;;;;;;;;;7394502;19;20019;-55
2021/11/18 12:01:01;;;;;;;2.35;1.50;;;;;;;;;;7396266;19;20482;-57
2021/11/18 12:03:33;;;;;;;2.30;1.20;;;;;;;;;;7396342;19;20014;-54
2021/11/18 12:06:20;;;;;;;3.20;1.50;;;;;;;;;;7395585;19;20515;-59
2021/11/18 12:08:53;;;;;;;1.92;1.15;;;;;;;;;;7396133;19;20010;-57
2021/11/18 12:11:57;;;;;;;1.48;0.98;;;;;;;;;;7395533;19;20015;-58
2021/11/18 12:14:30;;;;;;;3.38;2.22;;;;;;;;;;7395178;19;20027;-60
2021/11/18 12:17:19;;;;;;;2.20;1.17;;;;;;;;;;7396259;19;20006;-57
2021/11/18 12:20:05;;;;;;;1.77;1.10;;;;;;;;;;7394910;19;20391;-58
2021/11/18 12:22:34;;;;;;;2.10;1.20;;;;;;;;;;7395479;19;20050;-57
2021/11/18 12:25:08;;;;;;;2.42;1.48;;;;;;;;;;7395340;19;20017;-59
2021/11/18 12:27:40;;;;;;;1.92;1.00;;;;;;;;;;7394578;19;20006;-56
2021/11/18 12:30:22;;;;;;;2.25;1.10;;;;;;;;;;7391369;19;20015;-53
2021/11/18 12:32:57;;;;;;;2.33;1.23;;;;;;;;;;7395469;19;20028;-58
2021/11/18 12:35:40;;;;;;;1.60;0.90;;;;;;;;;;7394823;19;20092;-53
2021/11/18 12:38:29;;;;;;;1.13;0.77;;;;;;;;;;7394535;19;20074;-57
2021/11/18 12:41:04;;;;;;;1.38;0.95;;;;;;;;;;7395386;19;20021;-56
2021/11/18 12:43:53;;;;;;;1.42;0.85;;;;;;;;;;7394016;19;20020;-58
2021/11/18 12:46:25;;;;;;;;;;;;;;;;;;7395244;19;20049;-58
2021/11/18 12:48:53;;;;;;;1.27;0.80;;;;;;;;;;7394463;19;19910;-57
2021/11/18 12:52:02;;;;;;;1.13;0.82;;;;;;;;;;7393167;19;20015;-58
2021/11/18 12:54:35;;;;;;;1.92;1.33;;;;;;;;;;7393600;19;20033;-53
2021/11/18 12:57:26;;;;;;;1.88;0.98;;;;;;;;;;7393006;19;20017;-56
2021/11/18 12:59:57;;;;;;;1.55;0.93;;;;;;;;;;7394493;19;20022;-53
2021/11/18 13:02:27;;;;;;;2.75;0.90;;;;;;;;;;7394390;19;20015;-58
2021/11/18 13:04:57;;;;;;;1.33;0.82;;;;;;;;;;7394419;19;20031;-61
2021/11/18 13:07:43;;;;;;;30.92;15.15;;;;;;;;;;7393897;19;20084;-53
2021/11/18 13:10:23;;;;;;;7.18;3.60;;;;;;;;;;7393905;19;20011;-52
2021/11/18 13:13:30;;;;;;;7.25;3.97;;;;;;;;;;7394042;19;20025;-59
2021/11/18 13:15:58;;;;;;;7.53;4.13;;;;;;;;;;7391601;19;20014;-57
2021/11/18 13:18:25;;;;;;;5.75;3.08;;;;;;;;;;7391164;19;20018;-55
2021/11/18 13:21:18;;;;;;;2.60;1.65;;;;;;;;;;7392892;19;20029;-59
2021/11/18 13:23:59;;;;;;;5.18;1.13;;;;;;;;;;7392927;19;20038;-59
2021/11/18 13:26:37;;;;;;;3.42;1.90;;;;;;;;;;7393267;19;20042;-55
2021/11/18 13:29:22;;;;;;;6.18;4.05;;;;;;;;;;7393189;19;20010;-57
2021/11/18 13:31:49;;;;;;;67.20;22.95;;;;;;;;;;7392630;19;20022;-59
2021/11/18 13:34:34;;;;;;;6.00;3.10;;;;;;;;;;7393459;19;20078;-51
2021/11/18 13:37:20;;;;;;;4.65;2.30;;;;;;;;;;7392453;19;20089;-58
2021/11/18 13:40:09;;;;;;;3.47;1.20;;;;;;;;;;7392793;19;20069;-53
2021/11/18 13:42:57;;;;;;;3.33;1.30;;;;;;;;;;7392783;19;20018;-60
2021/11/18 13:45:26;;;;;;;2.33;1.35;;;;;;;;;;7392413;19;20084;-59
2021/11/18 13:48:05;;;;;;;1.70;1.27;;;;;;;;;;7392440;19;20014;-56
2021/11/18 13:50:35;;;;;;;5.13;2.08;;;;;;;;;;7392414;19;20034;-58
2021/11/18 13:53:12;;;;;;;1.80;1.33;;;;;;;;;;7395234;19;20028;-56
2021/11/18 13:56:03;;;;;;;2.05;1.42;;;;;;;;;;7389947;19;20010;-58
2021/11/18 13:58:46;;;;;;;2.30;1.23;;;;;;;;;;7389747;19;20014;-59
2021/11/18 14:01:30;;;;;;;3.97;1.95;;;;;;;;;;7391945;19;20011;-55
2021/11/18 14:04:02;;;;;;;5.63;1.50;;;;;;;;;;7391456;19;20022;-56
2021/11/18 14:06:35;;;;;;;1.92;1.33;;;;;;;;;;7390522;19;20018;-58
2021/11/18 14:09:16;;;;;;;1.95;1.15;;;;;;;;;;7391529;19;20010;-60
2021/11/18 14:12:01;;;;;;;9.20;4.60;;;;;;;;;;7392076;19;20516;-59
2021/11/18 14:14:48;;;;;;;6.40;3.25;;;;;;;;;;7392268;19;20022;-59
2021/11/18 14:17:22;;;;;;;2.72;1.25;;;;;;;;;;7391343;19;20021;-57
2021/11/18 14:20:03;;;;;;;;;;;;;;;;;;7391537;19;20042;-55
2021/11/18 14:22:33;;;;;;;1.20;0.93;;;;;;;;;;7391837;19;19941;-55
2021/11/18 14:25:40;;;;;;;3.40;1.10;;;;;;;;;;7391058;19;20534;-58
2021/11/18 14:28:29;;;;;;;1.52;0.90;;;;;;;;;;7390772;19;20018;-56
2021/11/18 14:30:58;;;;;;;0.90;0.60;;;;;;;;;;7390365;19;20372;-56
2021/11/18 14:33:38;;;;;;;1.80;1.00;;;;;;;;;;7390900;19;20106;-53
2021/11/18 14:36:17;;;;;;;2.67;1.00;;;;;;;;;;7390256;19;20509;-57
2021/11/18 14:38:50;;;;;;;0.98;0.80;;;;;;;;;;7389590;19;20010;-57
2021/11/18 14:41:28;;;;;;;150.63;49.90;;;;;;;;;;7390717;19;20010;-57
2021/11/18 14:44:06;;;;;;;23.42;11.43;;;;;;;;;;7391183;19;20031;-57
2021/11/18 14:46:57;;;;;;;7.00;3.15;;;;;;;;;;7391287;19;20021;-57
2021/11/18 14:49:31;;;;;;;5.05;1.80;;;;;;;;;;7389401;19;20025;-56
2021/11/18 14:52:26;;;;;;;2.28;1.20;;;;;;;;;;7391201;19;20011;-54
2021/11/18 14:55:28;;;;;;;1.50;0.80;;;;;;;;;;7389282;19;20014;-58
2021/11/18 14:58:17;;;;;;;1.50;0.95;;;;;;;;;;7388596;19;20006;-58
2021/11/18 15:00:57;;;;;;;1.52;0.93;;;;;;;;;;7390458;19;20007;-54
2021/11/18 15:03:29;;;;;;;1.10;0.90;;;;;;;;;;7390144;19;20020;-58
2021/11/18 15:05:57;;;;;;;0.98;0.73;;;;;;;;;;7389578;19;20007;-57
2021/11/18 15:08:25;;;;;;;1.20;0.80;;;;;;;;;;7390223;19;20031;-55
2021/11/18 15:10:54;;;;;;;1.13;0.82;;;;;;;;;;7389811;19;20126;-58
2021/11/18 15:13:23;;;;;;;1.42;0.80;;;;;;;;;;7389657;19;20010;-58
2021/11/18 15:15:51;;;;;;;1.00;0.80;;;;;;;;;;7390260;19;20086;-58
2021/11/18 15:18:19;;;;;;;1.50;0.85;;;;;;;;;;7389089;19;20021;-60
2021/11/18 15:20:49;;;;;;;0.90;0.70;;;;;;;;;;7389774;19;20033;-55
2021/11/18 15:23:21;;;;;;;2.30;0.85;;;;;;;;;;7389263;19;20015;-55
2021/11/18 15:25:50;;;;;;;1.55;1.00;;;;;;;;;;7389824;19;20025;-54